createdAt,value
2019-05-13T00:00:18.636Z,103738.41
2019-05-13T00:03:03.723Z,103762.48
2019-05-13T00:05:47.997Z,103739.92
2019-05-13T00:08:33.816Z,103737.68
2019-05-13T00:11:18.581Z,103758.34
2019-05-13T00:14:04.408Z,103736.46
2019-05-13T00:16:49.339Z,103745.02
2019-05-13T00:19:34.696Z,103758.54
2019-05-13T00:22:20.568Z,103755.37
2019-05-13T00:24:54.234Z,103764.58
2019-05-13T00:27:50.799Z,103733.94
2019-05-13T00:30:36.382Z,103765.80
2019-05-13T00:33:21.167Z,103760.88
2019-05-13T00:36:05.784Z,103749.11
2019-05-13T00:38:50.533Z,103767.75
2019-05-13T00:41:34.063Z,103750.67
2019-05-13T00:47:43.640Z,103749.34
2019-05-13T00:50:28.436Z,103768.80
2019-05-13T00:53:13.380Z,103736.58
2019-05-13T00:55:58.982Z,103742.59
2019-05-13T00:58:43.694Z,103742.78
2019-05-13T01:01:28.183Z,103737.66
2019-05-13T01:04:14.164Z,103735.98
2019-05-13T01:06:57.862Z,103760.77
2019-05-13T01:09:44.189Z,103759.48
2019-05-13T01:12:27.605Z,103741.02
2019-05-13T01:15:13.535Z,103755.20
2019-05-13T01:17:58.734Z,103735.45
2019-05-13T01:20:43.741Z,103736.59
2019-05-13T01:23:29.775Z,103737.12
2019-05-13T01:26:14.235Z,103757.98
2019-05-13T01:28:58.877Z,103754.61
2019-05-13T01:31:43.478Z,103732.72
2019-05-13T01:34:27.602Z,103730.77
2019-05-13T01:37:13.173Z,103737.25
2019-05-13T01:39:57.641Z,103733.96
2019-05-13T01:42:44.199Z,103731.81
2019-05-13T01:45:28.470Z,103760.31
2019-05-13T01:48:14.090Z,103736.00
2019-05-13T01:50:58.819Z,103762.83
2019-05-13T01:53:44.103Z,103768.59
2019-05-13T01:56:28.588Z,103744.91
2019-05-13T01:59:15.022Z,103769.81
2019-05-13T02:01:57.863Z,103759.25
2019-05-13T02:04:43.905Z,103776.23
2019-05-13T02:07:28.867Z,103757.09
2019-05-13T02:10:14.510Z,103776.13
2019-05-13T02:12:59.733Z,103752.86
2019-05-13T02:15:45.215Z,103747.75
2019-05-13T02:18:29.647Z,103780.52
2019-05-13T02:21:14.518Z,103784.94
2019-05-13T02:23:59.611Z,103766.98
2019-05-13T02:26:44.368Z,103767.17
2019-05-13T02:29:28.108Z,103756.69
2019-05-13T02:32:13.751Z,103759.13
2019-05-13T02:35:02.695Z,103782.65
2019-05-13T02:37:45.022Z,103787.28
2019-05-13T02:40:32.455Z,103791.73
2019-05-13T02:43:15.957Z,103792.16
2019-05-13T02:46:03.765Z,103800.51
2019-05-13T02:48:52.840Z,103774.63
2019-05-13T02:51:48.410Z,103772.53
2019-05-13T02:54:34.044Z,103802.80
2019-05-13T02:57:19.063Z,103777.14
2019-05-13T03:00:07.046Z,103787.86
2019-05-13T03:02:52.446Z,103787.22
2019-05-13T03:05:36.902Z,103803.61
2019-05-13T03:08:38.060Z,103804.64
2019-05-13T03:11:07.545Z,103808.70
2019-05-13T03:13:53.153Z,103782.59
2019-05-13T03:19:43.718Z,103813.07
2019-05-13T03:22:27.841Z,103791.80
2019-05-13T03:25:13.205Z,103813.41
2019-05-13T03:27:57.686Z,103785.33
2019-05-13T03:30:46.160Z,103808.88
2019-05-13T03:33:35.934Z,103795.87
2019-05-13T03:36:17.911Z,103812.02
2019-05-13T03:39:10.947Z,103794.05
2019-05-13T03:42:03.691Z,103802.78
2019-05-13T03:45:16.092Z,103820.22
2019-05-13T03:48:04.594Z,103796.55
2019-05-13T03:50:49.277Z,103799.44
2019-05-13T03:53:33.733Z,103796.67
2019-05-13T03:56:18.133Z,103802.77
2019-05-13T03:59:02.805Z,103805.63
2019-05-13T04:01:35.299Z,103830.61
2019-05-13T04:04:07.664Z,103832.30
2019-05-13T04:09:58.687Z,103829.25
2019-05-13T04:12:44.257Z,103829.16
2019-05-13T04:15:31.996Z,103831.69
2019-05-13T04:18:16.710Z,103830.05
2019-05-13T04:21:02.851Z,103823.86
2019-05-13T04:23:45.696Z,103805.29
2019-05-13T04:26:32.359Z,103808.79
2019-05-13T04:29:16.097Z,103827.28
2019-05-13T04:32:02.208Z,103829.45
2019-05-13T04:34:46.317Z,103815.77
2019-05-13T04:37:32.869Z,103810.52
2019-05-13T04:40:17.149Z,103829.00
2019-05-13T04:43:02.899Z,103835.73
2019-05-13T04:45:47.995Z,103833.78
2019-05-13T04:48:33.879Z,103817.81
2019-05-13T04:51:17.791Z,103820.95
2019-05-13T04:54:03.238Z,103843.63
2019-05-13T04:56:47.524Z,103825.66
2019-05-13T04:59:34.022Z,103849.95
2019-05-13T05:02:49.498Z,103851.47
2019-05-13T05:06:03.192Z,103854.89
2019-05-13T05:09:07.128Z,103832.52
2019-05-13T05:12:12.436Z,103834.62
2019-05-13T05:18:48.955Z,103853.13
2019-05-13T05:22:03.094Z,103852.80
2019-05-13T05:25:07.242Z,103861.59
2019-05-13T05:31:14.682Z,103866.16
2019-05-13T05:34:21.886Z,103844.59
2019-05-13T05:40:12.325Z,103868.77
2019-05-13T05:42:56.632Z,103863.95
2019-05-13T05:45:41.409Z,103847.52
2019-05-13T05:48:25.673Z,103866.91
2019-05-13T05:51:13.036Z,103846.54
2019-05-13T05:53:55.848Z,103862.74
2019-05-13T05:56:41.505Z,103860.66
2019-05-13T05:59:26.350Z,103843.13
2019-05-13T06:02:12.323Z,103851.91
2019-05-13T06:04:57.838Z,103865.72
2019-05-13T06:07:42.332Z,103835.66
2019-05-13T06:10:26.659Z,103839.54
2019-05-13T06:13:12.189Z,103847.29
2019-05-13T06:15:56.390Z,103867.05
2019-05-13T06:18:41.527Z,103849.62
2019-05-13T06:21:26.536Z,103851.30
2019-05-13T06:24:14.519Z,103875.52
2019-05-13T06:26:58.507Z,103854.98
2019-05-13T06:29:43.917Z,103847.38
2019-05-13T06:32:28.370Z,103851.65
2019-05-13T06:35:14.201Z,103861.16
2019-05-13T06:38:01.284Z,103861.56
2019-05-13T06:40:58.135Z,103878.41
2019-05-13T06:43:31.452Z,103850.14
2019-05-13T06:46:16.196Z,103864.00
2019-05-13T06:49:02.967Z,103878.17
2019-05-13T06:51:47.541Z,103874.24
2019-05-13T06:54:33.141Z,103884.61
2019-05-13T06:57:17.979Z,103857.37
2019-05-13T07:00:02.043Z,103858.26
2019-05-13T07:02:47.751Z,103864.11
2019-05-13T07:05:32.582Z,103860.37
2019-05-13T07:08:16.803Z,103863.00
2019-05-13T07:11:17.263Z,103857.30
2019-05-13T07:13:55.144Z,103882.27
2019-05-13T07:16:38.967Z,103868.73
2019-05-13T07:19:23.880Z,103889.59
2019-05-13T07:22:08.304Z,103868.91
2019-05-13T07:24:52.612Z,103874.82
2019-05-13T07:27:37.295Z,103871.56
2019-05-13T07:33:33.956Z,103894.08
2019-05-13T07:36:06.344Z,103896.71
2019-05-13T07:38:41.572Z,103902.39
2019-05-13T07:41:39.726Z,103882.55
2019-05-13T07:44:23.837Z,103876.56
2019-05-13T07:47:08.268Z,103875.05
2019-05-13T07:49:52.750Z,103894.50
2019-05-13T07:52:25.361Z,103896.84
2019-05-13T07:55:16.401Z,103903.63
2019-05-13T07:58:02.062Z,103902.72
2019-05-13T08:00:45.890Z,103883.90
2019-05-13T08:03:31.742Z,103900.59
2019-05-13T08:06:15.516Z,103905.30
2019-05-13T08:09:01.680Z,103891.37
2019-05-13T08:12:02.414Z,103886.63
2019-05-13T08:14:33.530Z,103887.20
2019-05-13T08:17:18.356Z,103904.95
2019-05-13T08:20:03.115Z,103883.87
2019-05-13T08:22:48.427Z,103894.66
2019-05-13T08:25:33.009Z,103883.94
2019-05-13T08:28:17.476Z,103883.95
2019-05-13T08:31:02.236Z,103882.98
2019-05-13T08:33:45.946Z,103877.22
2019-05-13T08:36:29.642Z,103883.17
2019-05-13T08:39:13.185Z,103898.96
2019-05-13T08:42:11.698Z,103885.48
2019-05-13T08:44:43.928Z,103875.02
2019-05-13T08:47:28.282Z,103879.92
2019-05-13T08:50:12.727Z,103887.23
2019-05-13T08:52:56.674Z,103893.17
2019-05-13T08:55:42.928Z,103872.34
2019-05-13T08:58:28.080Z,103895.81
2019-05-13T09:01:12.588Z,103870.42
2019-05-13T09:03:56.731Z,103875.59
2019-05-13T09:06:41.883Z,103889.66
2019-05-13T09:09:26.270Z,103894.58
2019-05-13T09:12:28.142Z,103899.67
2019-05-13T09:15:12.018Z,103883.11
2019-05-13T09:17:56.088Z,103875.56
2019-05-13T09:20:42.349Z,103873.80
2019-05-13T09:23:14.884Z,103889.57
2019-05-13T09:25:59.181Z,103880.48
2019-05-13T09:28:43.337Z,103860.33
2019-05-13T09:31:27.687Z,103876.75
2019-05-13T09:34:12.327Z,103890.80
2019-05-13T09:36:58.084Z,103883.49
2019-05-13T09:39:42.334Z,103884.77
2019-05-13T09:42:26.020Z,103862.53
2019-05-13T09:48:01.634Z,103885.28
2019-05-13T09:50:46.438Z,103870.00
2019-05-13T09:53:32.517Z,103864.46
2019-05-13T09:56:17.520Z,103879.05
2019-05-13T09:59:02.071Z,103862.20
2019-05-13T10:01:45.758Z,103862.09
2019-05-13T10:04:31.748Z,103873.17
2019-05-13T10:07:15.620Z,103881.27
2019-05-13T10:10:01.636Z,103857.76
2019-05-13T10:15:28.150Z,103856.17
2019-05-13T10:18:12.922Z,103842.39
2019-05-13T10:20:58.720Z,103869.44
2019-05-13T10:23:44.111Z,103865.48
2019-05-13T10:26:27.990Z,103868.62
2019-05-13T10:29:12.589Z,103834.77
2019-05-13T10:31:56.885Z,103862.63
2019-05-13T10:34:42.774Z,103831.53
2019-05-13T10:37:28.215Z,103868.20
2019-05-13T10:40:13.367Z,103836.52
2019-05-13T10:43:01.358Z,103857.30
2019-05-13T10:45:45.572Z,103864.95
2019-05-13T10:48:30.384Z,103838.62
2019-05-13T10:51:15.391Z,103856.95
2019-05-13T10:54:00.908Z,103829.78
2019-05-13T10:56:45.512Z,103850.53
2019-05-13T10:59:30.441Z,103855.52
2019-05-13T11:02:03.060Z,103857.78
2019-05-13T11:04:35.978Z,103860.08
2019-05-13T11:07:22.495Z,103827.27
2019-05-13T11:09:55.810Z,103859.78
2019-05-13T11:12:41.833Z,103857.84
2019-05-13T11:15:26.092Z,103857.59
2019-05-13T11:18:14.247Z,103824.39
2019-05-13T11:20:56.616Z,103858.45
2019-05-13T11:23:42.803Z,103825.25
2019-05-13T11:26:26.846Z,103832.16
2019-05-13T11:29:12.113Z,103831.56
2019-05-13T11:31:56.705Z,103846.28
2019-05-13T11:34:42.153Z,103825.77
2019-05-13T11:37:27.611Z,103850.01
2019-05-13T11:40:13.535Z,103829.52
2019-05-13T11:42:47.492Z,103840.57
2019-05-13T11:45:32.237Z,103820.51
2019-05-13T11:48:17.321Z,103842.84
2019-05-13T11:51:04.024Z,103820.70
2019-05-13T11:53:46.958Z,103830.54
2019-05-13T11:56:33.747Z,103818.50
2019-05-13T11:59:18.547Z,103821.16
2019-05-13T12:02:05.591Z,103816.75
2019-05-13T12:04:52.534Z,103819.48
2019-05-13T12:07:35.634Z,103841.95
2019-05-13T12:10:22.814Z,103808.85
2019-05-13T12:13:07.226Z,103803.55
2019-05-13T12:15:54.341Z,103836.20
2019-05-13T12:18:43.540Z,103841.75
2019-05-13T12:21:23.514Z,103807.20
2019-05-13T12:24:11.038Z,103802.33
2019-05-13T12:26:54.742Z,103800.28
2019-05-13T12:29:38.618Z,103797.70
2019-05-13T12:32:24.954Z,103792.27
2019-05-13T12:35:13.255Z,103790.11
2019-05-13T12:37:55.253Z,103815.37
2019-05-13T12:40:42.909Z,103802.77
2019-05-13T12:43:25.435Z,103797.09
2019-05-13T12:46:12.308Z,103818.66
2019-05-13T12:48:54.720Z,103813.59
2019-05-13T12:51:38.582Z,103809.14
2019-05-13T12:54:23.643Z,103786.36
2019-05-13T12:57:13.203Z,103807.60
2019-05-13T12:59:56.380Z,103780.08
2019-05-13T13:02:48.682Z,103777.47
2019-05-13T13:05:33.111Z,103776.84
2019-05-13T13:08:24.684Z,103780.45
2019-05-13T13:11:00.940Z,103799.44
2019-05-13T13:13:58.889Z,103780.09
2019-05-13T13:16:34.565Z,103787.27
2019-05-13T13:19:18.861Z,103767.39
2019-05-13T13:22:07.673Z,103761.20
2019-05-13T13:24:52.970Z,103799.81
2019-05-13T13:28:03.976Z,103769.93
2019-05-13T13:30:23.460Z,103767.06
2019-05-13T13:33:08.629Z,103762.13
2019-05-13T13:35:58.904Z,103766.41
2019-05-13T13:38:46.819Z,103792.70
2019-05-13T13:41:32.752Z,103760.34
2019-05-13T13:44:16.999Z,103791.25
2019-05-13T13:47:01.402Z,103765.29
2019-05-13T13:49:46.156Z,103784.21
2019-05-13T13:52:33.548Z,103763.11
2019-05-13T13:55:16.700Z,103762.58
2019-05-13T13:58:02.302Z,103765.63
2019-05-13T14:01:01.777Z,103755.92
2019-05-13T14:03:35.889Z,103774.49
2019-05-13T14:07:20.430Z,103755.01
2019-05-13T14:09:07.053Z,103792.77
2019-05-13T14:11:52.290Z,103770.69
2019-05-13T14:14:36.404Z,103762.17
2019-05-13T14:17:22.056Z,103758.30
2019-05-13T14:20:06.488Z,103746.36
2019-05-13T14:22:57.263Z,103749.30
2019-05-13T14:25:26.735Z,103773.91
2019-05-13T14:28:11.031Z,103762.37
2019-05-13T14:30:56.264Z,103758.46
2019-05-13T14:33:42.452Z,103740.03
2019-05-13T14:36:26.351Z,103738.56
2019-05-13T14:39:12.204Z,103739.00
2019-05-13T14:41:56.841Z,103737.61
2019-05-13T14:44:41.272Z,103737.73
2019-05-13T14:47:26.305Z,103728.37
2019-05-13T14:50:12.117Z,103768.41
2019-05-13T14:52:56.559Z,103765.36
2019-05-13T14:55:41.938Z,103732.20
2019-05-13T14:58:26.640Z,103757.23
2019-05-13T15:01:19.869Z,103736.39
2019-05-13T15:04:12.468Z,103761.76
2019-05-13T15:06:56.721Z,103749.40
2019-05-13T15:09:42.126Z,103765.20
2019-05-13T15:12:27.200Z,103743.59
2019-05-13T15:15:12.743Z,103746.64
2019-05-13T15:18:01.484Z,103740.45
2019-05-13T15:20:53.623Z,103757.30
2019-05-13T15:23:38.578Z,103738.92
2019-05-13T15:26:23.209Z,103756.05
2019-05-13T15:29:07.330Z,103754.68
2019-05-13T15:31:51.548Z,103759.31
2019-05-13T15:34:35.843Z,103752.47
2019-05-13T15:37:21.545Z,103761.02
2019-05-13T15:40:06.552Z,103750.92
2019-05-13T15:42:52.425Z,103724.06
2019-05-13T15:45:39.450Z,103728.14
2019-05-13T15:48:23.725Z,103758.63
2019-05-13T15:51:08.406Z,103735.75
2019-05-13T15:53:52.702Z,103731.34
2019-05-13T15:56:36.987Z,103757.93
2019-05-13T15:59:21.574Z,103752.37
2019-05-13T16:02:05.833Z,103725.28
2019-05-13T16:04:57.778Z,103747.64
2019-05-13T16:07:35.889Z,103717.62
2019-05-13T16:13:51.764Z,103720.11
2019-05-13T16:16:47.531Z,103715.17
2019-05-13T16:19:32.771Z,103718.60
2019-05-13T16:22:17.349Z,103722.28
2019-05-13T16:25:01.680Z,103714.00
2019-05-13T16:27:45.973Z,103740.91
2019-05-13T16:30:32.062Z,103715.50
2019-05-13T16:33:17.330Z,103742.47
2019-05-13T16:36:02.916Z,103740.63
2019-05-13T16:38:47.170Z,103738.59
2019-05-13T16:41:31.850Z,103718.05
2019-05-13T16:44:22.430Z,103720.55
2019-05-13T16:47:18.289Z,103741.46
2019-05-13T16:50:02.896Z,103712.16
2019-05-13T16:52:47.388Z,103704.84
2019-05-13T16:55:33.159Z,103707.87
2019-05-13T16:58:17.665Z,103708.53
2019-05-13T17:01:02.650Z,103725.52
2019-05-13T17:03:51.307Z,103727.97
2019-05-13T17:06:35.242Z,103727.31
2019-05-13T17:09:19.337Z,103702.10
2019-05-13T17:12:03.486Z,103732.71
2019-05-13T17:14:49.068Z,103720.27
2019-05-13T17:17:35.253Z,103729.31
2019-05-13T17:20:21.514Z,103725.42
2019-05-13T17:23:05.889Z,103729.06
2019-05-13T17:25:52.085Z,103735.70
2019-05-13T17:28:37.711Z,103744.40
2019-05-13T17:31:22.293Z,103737.43
2019-05-13T17:34:07.229Z,103730.27
2019-05-13T17:36:52.071Z,103734.96
2019-05-13T17:39:37.315Z,103735.82
2019-05-13T17:42:21.555Z,103739.77
2019-05-13T17:45:07.520Z,103734.79
2019-05-13T17:47:52.391Z,103737.15
2019-05-13T17:50:38.820Z,103728.39
2019-05-13T17:53:25.427Z,103738.01
2019-05-13T17:56:11.192Z,103743.92
2019-05-13T17:58:55.828Z,103718.66
2019-05-13T18:01:41.236Z,103714.08
2019-05-13T18:04:25.809Z,103722.31
2019-05-13T18:07:12.245Z,103738.32
2019-05-13T18:12:58.981Z,103713.66
2019-05-13T18:15:43.006Z,103731.34
2019-05-13T18:18:39.143Z,103701.44
2019-05-13T18:21:13.025Z,103728.98
2019-05-13T18:24:01.541Z,103728.75
2019-05-13T18:27:01.152Z,103725.27
2019-05-13T18:29:44.623Z,103698.73
2019-05-13T18:32:29.112Z,103729.28
2019-05-13T18:35:13.006Z,103705.19
2019-05-13T18:37:57.472Z,103702.17
2019-05-13T18:40:42.368Z,103711.92
2019-05-13T18:43:27.223Z,103703.08
2019-05-13T18:48:59.395Z,103701.45
2019-05-13T18:51:44.806Z,103734.61
2019-05-13T18:54:31.380Z,103735.48
2019-05-13T18:57:14.840Z,103726.45
2019-05-13T19:00:01.814Z,103710.95
2019-05-13T19:02:45.267Z,103720.88
2019-05-13T19:05:31.752Z,103752.25
2019-05-13T19:08:16.465Z,103747.46
2019-05-13T19:11:01.291Z,103726.02
2019-05-13T19:13:46.144Z,103723.70
2019-05-13T19:16:31.893Z,103752.95
2019-05-13T19:19:19.717Z,103760.22
2019-05-13T19:22:04.094Z,103755.52
2019-05-13T19:24:47.969Z,103749.81
2019-05-13T19:27:37.025Z,103734.47
2019-05-13T19:30:21.344Z,103724.13
2019-05-13T19:33:06.977Z,103753.31
2019-05-13T19:35:51.814Z,103724.78
2019-05-13T19:38:37.404Z,103743.22
2019-05-13T19:41:22.262Z,103753.22
2019-05-13T19:44:08.532Z,103734.08
2019-05-13T19:46:52.753Z,103750.67
2019-05-13T19:49:37.457Z,103741.61
2019-05-13T19:52:21.643Z,103761.56
2019-05-13T19:55:06.877Z,103726.45
2019-05-13T19:57:51.695Z,103761.08
2019-05-13T20:03:42.604Z,103748.17
2019-05-13T20:06:26.939Z,103776.41
2019-05-13T20:09:12.119Z,103771.98
2019-05-13T20:11:56.618Z,103775.05
2019-05-13T20:14:29.785Z,103772.76
2019-05-13T20:17:14.582Z,103775.49
2019-05-13T20:20:02.105Z,103771.20
2019-05-13T20:22:56.733Z,103777.88
2019-05-13T20:25:41.846Z,103775.20
2019-05-13T20:28:26.130Z,103748.11
2019-05-13T20:31:13.737Z,103770.14
2019-05-13T20:34:01.721Z,103773.33
2019-05-13T20:36:56.967Z,103754.48
2019-05-13T20:39:42.463Z,103740.47
2019-05-13T20:42:26.977Z,103754.89
2019-05-13T20:45:11.609Z,103751.25
2019-05-13T20:47:55.977Z,103736.02
2019-05-13T20:50:41.341Z,103739.52
2019-05-13T20:53:25.367Z,103739.80
2019-05-13T20:56:11.000Z,103739.73
2019-05-13T20:58:55.511Z,103769.23
2019-05-13T21:01:41.736Z,103769.16
2019-05-13T21:04:27.910Z,103770.94
2019-05-13T21:07:19.054Z,103739.84
2019-05-13T21:10:01.580Z,103745.46
2019-05-13T21:15:38.072Z,103743.30
2019-05-13T21:18:22.936Z,103731.30
2019-05-13T21:21:08.315Z,103758.41
2019-05-13T21:23:53.331Z,103730.28
2019-05-13T21:26:41.784Z,103732.14
2019-05-13T21:29:23.792Z,103736.79
2019-05-13T21:32:07.947Z,103730.22
2019-05-13T21:34:52.089Z,103754.72
2019-05-13T21:37:36.449Z,103728.85
2019-05-13T21:40:21.728Z,103729.30
2019-05-13T21:43:06.078Z,103747.61
2019-05-13T21:45:52.102Z,103746.77
2019-05-13T21:48:36.122Z,103720.92
2019-05-13T21:51:22.320Z,103714.61
2019-05-13T21:54:07.044Z,103718.52
2019-05-13T21:56:53.300Z,103738.05
2019-05-13T21:59:37.357Z,103714.41
2019-05-13T22:02:23.432Z,103716.66
2019-05-13T22:05:08.783Z,103727.63
2019-05-13T22:07:52.717Z,103712.36
2019-05-13T22:10:36.861Z,103741.77
2019-05-13T22:13:21.677Z,103711.34
2019-05-13T22:16:05.814Z,103749.66
2019-05-13T22:18:52.429Z,103710.99
2019-05-13T22:21:24.608Z,103740.06
2019-05-13T22:24:08.516Z,103741.07
2019-05-13T22:26:52.130Z,103712.43
2019-05-13T22:29:35.763Z,103735.53
2019-05-13T22:32:21.802Z,103735.56
2019-05-13T22:35:06.251Z,103709.41
2019-05-13T22:37:51.230Z,103717.25
2019-05-13T22:40:35.496Z,103734.11
2019-05-13T22:43:21.202Z,103704.06
2019-05-13T22:46:05.941Z,103732.70
2019-05-13T22:48:38.246Z,103729.34
2019-05-13T22:51:22.441Z,103724.87
2019-05-13T22:54:08.231Z,103733.84
2019-05-13T22:56:52.389Z,103708.66
2019-05-13T22:59:36.771Z,103699.37
2019-05-13T23:02:21.973Z,103729.20
2019-05-13T23:05:06.337Z,103703.02
2019-05-13T23:07:51.494Z,103706.94
2019-05-13T23:10:36.123Z,103706.04
2019-05-13T23:13:20.107Z,103701.33
2019-05-13T23:16:04.902Z,103705.61
2019-05-13T23:18:51.175Z,103705.64
2019-05-13T23:21:36.100Z,103702.70
2019-05-13T23:24:21.855Z,103701.78
2019-05-13T23:27:06.578Z,103722.78
2019-05-13T23:29:51.704Z,103725.28
2019-05-13T23:32:35.569Z,103697.92
2019-05-13T23:38:31.893Z,103699.22
2019-05-13T23:41:18.295Z,103721.89
2019-05-13T23:44:02.361Z,103714.05
2019-05-13T23:46:35.254Z,103721.05
2019-05-13T23:49:21.079Z,103693.42
2019-05-13T23:52:05.184Z,103701.47
2019-05-13T23:54:51.643Z,103707.21
2019-05-13T23:57:36.351Z,103704.91
